sensor_id;sensor_type;location;lat;lon;timestamp;P1;durP1;ratioP1;P2;durP2;ratioP2
4903;SDS011;2467;48.142;11.616;2024-03-08T00:00:04;13.27;;;11.80;;
4903;SDS011;2467;48.142;11.616;2024-03-08T00:00:41;16.85;;;13.13;;
4903;SDS011;2467;48.142;11.616;2024-03-08T00:01:14;14.40;;;12.77;;
4903;SDS011;2467;48.142;11.616;2024-03-08T00:01:47;15.85;;;13.55;;
4903;SDS011;2467;48.142;11.616;2024-03-08T00:02:20;15.93;;;14.23;;
4903;SDS011;2467;48.142;11.616;2024-03-08T00:02:52;16.05;;;13.70;;
4903;SDS011;2467;48.142;11.616;2024-03-08T00:03:25;15.13;;;13.63;;
4903;SDS011;2467;48.142;11.616;2024-03-08T00:04:00;14.35;;;12.52;;
4903;SDS011;2467;48.142;11.616;2024-03-08T00:04:32;17.98;;;12.40;;
4903;SDS011;2467;48.142;11.616;2024-03-08T00:05:04;13.32;;;11.93;;
4903;SDS011;2467;48.142;11.616;2024-03-08T00:05:40;13.95;;;12.55;;
4903;SDS011;2467;48.142;11.616;2024-03-08T00:06:12;15.55;;;13.70;;
4903;SDS011;2467;48.142;11.616;2024-03-08T00:06:44;14.95;;;13.35;;
4903;SDS011;2467;48.142;11.616;2024-03-08T00:07:19;13.52;;;12.13;;
4903;SDS011;2467;48.142;11.616;2024-03-08T00:07:51;15.70;;;13.20;;
4903;SDS011;2467;48.142;11.616;2024-03-08T00:08:24;13.20;;;11.82;;
4903;SDS011;2467;48.142;11.616;2024-03-08T00:08:56;14.25;;;12.82;;
4903;SDS011;2467;48.142;11.616;2024-03-08T00:09:29;15.00;;;13.43;;
4903;SDS011;2467;48.142;11.616;2024-03-08T00:10:02;14.82;;;12.80;;
4903;SDS011;2467;48.142;11.616;2024-03-08T00:10:34;15.32;;;13.52;;
4903;SDS011;2467;48.142;11.616;2024-03-08T00:11:06;15.27;;;13.13;;
4903;SDS011;2467;48.142;11.616;2024-03-08T00:11:40;14.75;;;13.00;;
4903;SDS011;2467;48.142;11.616;2024-03-08T00:12:12;15.52;;;13.05;;
4903;SDS011;2467;48.142;11.616;2024-03-08T00:12:44;16.08;;;13.70;;
4903;SDS011;2467;48.142;11.616;2024-03-08T00:13:17;15.15;;;13.55;;
4903;SDS011;2467;48.142;11.616;2024-03-08T00:13:50;15.50;;;13.85;;
4903;SDS011;2467;48.142;11.616;2024-03-08T00:14:25;14.15;;;11.85;;
4903;SDS011;2467;48.142;11.616;2024-03-08T00:14:57;15.25;;;13.05;;
4903;SDS011;2467;48.142;11.616;2024-03-08T00:15:30;15.82;;;13.95;;
4903;SDS011;2467;48.142;11.616;2024-03-08T00:16:04;15.00;;;13.48;;
4903;SDS011;2467;48.142;11.616;2024-03-08T00:16:36;15.85;;;13.40;;
4903;SDS011;2467;48.142;11.616;2024-03-08T00:17:08;14.57;;;12.23;;
4903;SDS011;2467;48.142;11.616;2024-03-08T00:17:40;18.75;;;13.55;;
4903;SDS011;2467;48.142;11.616;2024-03-08T00:18:14;16.33;;;13.75;;
4903;SDS011;2467;48.142;11.616;2024-03-08T00:18:47;15.15;;;13.23;;
4903;SDS011;2467;48.142;11.616;2024-03-08T00:19:20;17.90;;;13.73;;
4903;SDS011;2467;48.142;11.616;2024-03-08T00:19:52;17.55;;;13.93;;
4903;SDS011;2467;48.142;11.616;2024-03-08T00:20:26;12.80;;;11.50;;
4903;SDS011;2467;48.142;11.616;2024-03-08T00:20:58;15.02;;;12.57;;
4903;SDS011;2467;48.142;11.616;2024-03-08T00:21:31;14.98;;;13.35;;
4903;SDS011;2467;48.142;11.616;2024-03-08T00:22:03;15.20;;;12.38;;
4903;SDS011;2467;48.142;11.616;2024-03-08T00:22:37;17.90;;;13.45;;
4903;SDS011;2467;48.142;11.616;2024-03-08T00:23:09;15.02;;;13.48;;
4903;SDS011;2467;48.142;11.616;2024-03-08T00:23:42;15.50;;;12.80;;
4903;SDS011;2467;48.142;11.616;2024-03-08T00:24:15;15.30;;;12.75;;
4903;SDS011;2467;48.142;11.616;2024-03-08T00:24:47;16.92;;;14.02;;
4903;SDS011;2467;48.142;11.616;2024-03-08T00:25:21;14.90;;;12.90;;
4903;SDS011;2467;48.142;11.616;2024-03-08T00:25:54;16.85;;;13.00;;
4903;SDS011;2467;48.142;11.616;2024-03-08T00:26:28;16.13;;;13.65;;
4903;SDS011;2467;48.142;11.616;2024-03-08T00:27:01;16.40;;;13.95;;
4903;SDS011;2467;48.142;11.616;2024-03-08T00:27:33;14.38;;;12.98;;
4903;SDS011;2467;48.142;11.616;2024-03-08T00:28:05;13.40;;;12.05;;
4903;SDS011;2467;48.142;11.616;2024-03-08T00:28:39;17.08;;;15.07;;
4903;SDS011;2467;48.142;11.616;2024-03-08T00:29:11;13.57;;;12.23;;
4903;SDS011;2467;48.142;11.616;2024-03-08T00:29:45;15.95;;;13.30;;
4903;SDS011;2467;48.142;11.616;2024-03-08T00:30:18;15.85;;;13.55;;
4903;SDS011;2467;48.142;11.616;2024-03-08T00:30:52;17.67;;;14.18;;
4903;SDS011;2467;48.142;11.616;2024-03-08T00:31:24;16.83;;;14.48;;
4903;SDS011;2467;48.142;11.616;2024-03-08T00:31:56;15.00;;;13.48;;
4903;SDS011;2467;48.142;11.616;2024-03-08T00:32:29;14.73;;;12.75;;
4903;SDS011;2467;48.142;11.616;2024-03-08T00:33:03;16.70;;;13.20;;
4903;SDS011;2467;48.142;11.616;2024-03-08T00:33:36;15.95;;;13.05;;
4903;SDS011;2467;48.142;11.616;2024-03-08T00:34:09;15.35;;;13.85;;
4903;SDS011;2467;48.142;11.616;2024-03-08T00:34:43;19.00;;;13.50;;
4903;SDS011;2467;48.142;11.616;2024-03-08T00:35:15;13.82;;;12.35;;
4903;SDS011;2467;48.142;11.616;2024-03-08T00:35:49;16.42;;;14.55;;
4903;SDS011;2467;48.142;11.616;2024-03-08T00:36:21;15.25;;;13.13;;
4903;SDS011;2467;48.142;11.616;2024-03-08T00:36:53;17.55;;;14.60;;
4903;SDS011;2467;48.142;11.616;2024-03-08T00:37:26;18.90;;;14.20;;
4903;SDS011;2467;48.142;11.616;2024-03-08T00:37:59;14.05;;;12.60;;
4903;SDS011;2467;48.142;11.616;2024-03-08T00:38:31;17.42;;;13.32;;
4903;SDS011;2467;48.142;11.616;2024-03-08T00:39:03;16.17;;;13.93;;
4903;SDS011;2467;48.142;11.616;2024-03-08T00:39:38;15.93;;;13.05;;
4903;SDS011;2467;48.142;11.616;2024-03-08T00:40:10;15.20;;;13.50;;
4903;SDS011;2467;48.142;11.616;2024-03-08T00:40:43;16.65;;;13.52;;
4903;SDS011;2467;48.142;11.616;2024-03-08T00:41:15;16.02;;;13.13;;
4903;SDS011;2467;48.142;11.616;2024-03-08T00:41:48;16.25;;;13.40;;
4903;SDS011;2467;48.142;11.616;2024-03-08T00:42:20;15.02;;;13.40;;
4903;SDS011;2467;48.142;11.616;2024-03-08T00:42:53;17.17;;;14.57;;
4903;SDS011;2467;48.142;11.616;2024-03-08T00:43:25;15.88;;;13.88;;
4903;SDS011;2467;48.142;11.616;2024-03-08T00:43:58;15.13;;;13.32;;
4903;SDS011;2467;48.142;11.616;2024-03-08T00:44:30;18.80;;;13.23;;
4903;SDS011;2467;48.142;11.616;2024-03-08T00:45:04;16.27;;;14.00;;
4903;SDS011;2467;48.142;11.616;2024-03-08T00:45:37;19.90;;;14.48;;
4903;SDS011;2467;48.142;11.616;2024-03-08T00:46:13;15.93;;;13.48;;
4903;SDS011;2467;48.142;11.616;2024-03-08T00:46:46;16.45;;;14.75;;
4903;SDS011;2467;48.142;11.616;2024-03-08T00:47:20;17.58;;;14.70;;
4903;SDS011;2467;48.142;11.616;2024-03-08T00:47:52;18.60;;;13.95;;
4903;SDS011;2467;48.142;11.616;2024-03-08T00:48:26;15.98;;;14.38;;
4903;SDS011;2467;48.142;11.616;2024-03-08T00:48:59;16.38;;;13.13;;
4903;SDS011;2467;48.142;11.616;2024-03-08T00:49:32;15.35;;;13.73;;
4903;SDS011;2467;48.142;11.616;2024-03-08T00:50:05;17.83;;;13.70;;
4903;SDS011;2467;48.142;11.616;2024-03-08T00:50:37;15.60;;;13.60;;
4903;SDS011;2467;48.142;11.616;2024-03-08T00:51:11;16.23;;;14.52;;
4903;SDS011;2467;48.142;11.616;2024-03-08T00:51:44;16.67;;;14.70;;
4903;SDS011;2467;48.142;11.616;2024-03-08T00:52:16;19.33;;;15.25;;
4903;SDS011;2467;48.142;11.616;2024-03-08T00:52:49;16.23;;;14.40;;
4903;SDS011;2467;48.142;11.616;2024-03-08T00:53:23;14.85;;;13.35;;
4903;SDS011;2467;48.142;11.616;2024-03-08T00:53:55;16.42;;;14.18;;
4903;SDS011;2467;48.142;11.616;2024-03-08T00:54:27;18.67;;;15.48;;
4903;SDS011;2467;48.142;11.616;2024-03-08T00:54:59;16.65;;;14.10;;
4903;SDS011;2467;48.142;11.616;2024-03-08T00:55:33;15.27;;;13.45;;
4903;SDS011;2467;48.142;11.616;2024-03-08T00:56:06;16.88;;;13.95;;
4903;SDS011;2467;48.142;11.616;2024-03-08T00:56:41;19.85;;;15.13;;
4903;SDS011;2467;48.142;11.616;2024-03-08T00:57:14;16.48;;;14.45;;
4903;SDS011;2467;48.142;11.616;2024-03-08T00:57:46;16.95;;;14.05;;
4903;SDS011;2467;48.142;11.616;2024-03-08T00:58:18;16.10;;;14.40;;
4903;SDS011;2467;48.142;11.616;2024-03-08T00:58:51;16.48;;;14.68;;
4903;SDS011;2467;48.142;11.616;2024-03-08T00:59:24;17.65;;;14.63;;
4903;SDS011;2467;48.142;11.616;2024-03-08T00:59:56;16.25;;;14.52;;
4903;SDS011;2467;48.142;11.616;2024-03-08T01:00:30;17.63;;;14.80;;
4903;SDS011;2467;48.142;11.616;2024-03-08T01:01:04;21.45;;;15.68;;
4903;SDS011;2467;48.142;11.616;2024-03-08T01:01:36;16.67;;;14.88;;
4903;SDS011;2467;48.142;11.616;2024-03-08T01:02:09;20.25;;;16.08;;
4903;SDS011;2467;48.142;11.616;2024-03-08T01:02:42;17.00;;;13.80;;
4903;SDS011;2467;48.142;11.616;2024-03-08T01:03:15;17.02;;;14.32;;
4903;SDS011;2467;48.142;11.616;2024-03-08T01:03:47;19.27;;;14.70;;
4903;SDS011;2467;48.142;11.616;2024-03-08T01:04:20;17.50;;;15.00;;
4903;SDS011;2467;48.142;11.616;2024-03-08T01:04:52;19.13;;;15.52;;
4903;SDS011;2467;48.142;11.616;2024-03-08T01:05:25;17.23;;;14.10;;
4903;SDS011;2467;48.142;11.616;2024-03-08T01:05:58;16.52;;;13.50;;
4903;SDS011;2467;48.142;11.616;2024-03-08T01:06:32;20.00;;;17.67;;
4903;SDS011;2467;48.142;11.616;2024-03-08T01:07:04;15.40;;;13.13;;
4903;SDS011;2467;48.142;11.616;2024-03-08T01:07:38;17.77;;;15.88;;
4903;SDS011;2467;48.142;11.616;2024-03-08T01:08:10;17.35;;;14.65;;
4903;SDS011;2467;48.142;11.616;2024-03-08T01:08:43;18.95;;;15.85;;
4903;SDS011;2467;48.142;11.616;2024-03-08T01:09:15;18.25;;;15.23;;
4903;SDS011;2467;48.142;11.616;2024-03-08T01:09:48;19.20;;;15.45;;
4903;SDS011;2467;48.142;11.616;2024-03-08T01:10:21;16.90;;;14.88;;
4903;SDS011;2467;48.142;11.616;2024-03-08T01:10:54;16.73;;;14.77;;
4903;SDS011;2467;48.142;11.616;2024-03-08T01:11:26;17.88;;;15.18;;
4903;SDS011;2467;48.142;11.616;2024-03-08T01:12:00;17.50;;;14.07;;
4903;SDS011;2467;48.142;11.616;2024-03-08T01:12:33;19.67;;;14.50;;
4903;SDS011;2467;48.142;11.616;2024-03-08T01:13:05;16.73;;;14.93;;
4903;SDS011;2467;48.142;11.616;2024-03-08T01:13:39;17.13;;;14.27;;
4903;SDS011;2467;48.142;11.616;2024-03-08T01:14:11;16.48;;;14.35;;
4903;SDS011;2467;48.142;11.616;2024-03-08T01:14:43;17.30;;;15.48;;
4903;SDS011;2467;48.142;11.616;2024-03-08T01:15:16;17.85;;;15.68;;
4903;SDS011;2467;48.142;11.616;2024-03-08T01:15:50;15.70;;;13.75;;
4903;SDS011;2467;48.142;11.616;2024-03-08T01:16:23;13.98;;;12.45;;
4903;SDS011;2467;48.142;11.616;2024-03-08T01:16:55;15.35;;;13.43;;
4903;SDS011;2467;48.142;11.616;2024-03-08T01:17:27;19.05;;;15.73;;
4903;SDS011;2467;48.142;11.616;2024-03-08T01:18:01;19.63;;;14.55;;
4903;SDS011;2467;48.142;11.616;2024-03-08T01:18:33;16.45;;;14.75;;
4903;SDS011;2467;48.142;11.616;2024-03-08T01:19:05;17.70;;;14.82;;
4903;SDS011;2467;48.142;11.616;2024-03-08T01:19:38;21.08;;;16.08;;
4903;SDS011;2467;48.142;11.616;2024-03-08T01:20:11;17.35;;;15.50;;
4903;SDS011;2467;48.142;11.616;2024-03-08T01:20:43;16.17;;;14.48;;
4903;SDS011;2467;48.142;11.616;2024-03-08T01:21:15;17.25;;;14.73;;
4903;SDS011;2467;48.142;11.616;2024-03-08T01:21:48;18.13;;;16.23;;
4903;SDS011;2467;48.142;11.616;2024-03-08T01:22:21;19.10;;;15.55;;
4903;SDS011;2467;48.142;11.616;2024-03-08T01:22:53;16.65;;;13.75;;
4903;SDS011;2467;48.142;11.616;2024-03-08T01:23:26;16.75;;;15.00;;
4903;SDS011;2467;48.142;11.616;2024-03-08T01:23:58;17.08;;;14.55;;
4903;SDS011;2467;48.142;11.616;2024-03-08T01:24:31;19.30;;;14.57;;
4903;SDS011;2467;48.142;11.616;2024-03-08T01:25:04;16.77;;;14.98;;
4903;SDS011;2467;48.142;11.616;2024-03-08T01:25:37;16.60;;;14.02;;
4903;SDS011;2467;48.142;11.616;2024-03-08T01:26:09;18.55;;;15.95;;
4903;SDS011;2467;48.142;11.616;2024-03-08T01:26:42;19.25;;;15.23;;
4903;SDS011;2467;48.142;11.616;2024-03-08T01:27:16;16.38;;;14.20;;
4903;SDS011;2467;48.142;11.616;2024-03-08T01:27:48;16.15;;;14.52;;
4903;SDS011;2467;48.142;11.616;2024-03-08T01:28:21;16.98;;;13.63;;
4903;SDS011;2467;48.142;11.616;2024-03-08T01:28:54;18.90;;;15.50;;
4903;SDS011;2467;48.142;11.616;2024-03-08T01:29:26;18.08;;;15.75;;
4903;SDS011;2467;48.142;11.616;2024-03-08T01:30:01;16.42;;;14.23;;
4903;SDS011;2467;48.142;11.616;2024-03-08T01:30:35;16.48;;;14.80;;
4903;SDS011;2467;48.142;11.616;2024-03-08T01:31:10;16.38;;;13.70;;
4903;SDS011;2467;48.142;11.616;2024-03-08T01:31:42;18.20;;;15.10;;
4903;SDS011;2467;48.142;11.616;2024-03-08T01:32:15;16.48;;;14.55;;
4903;SDS011;2467;48.142;11.616;2024-03-08T01:32:47;16.08;;;13.93;;
4903;SDS011;2467;48.142;11.616;2024-03-08T01:33:20;16.08;;;13.82;;
4903;SDS011;2467;48.142;11.616;2024-03-08T01:33:54;17.50;;;15.60;;
4903;SDS011;2467;48.142;11.616;2024-03-08T01:34:27;17.88;;;15.38;;
4903;SDS011;2467;48.142;11.616;2024-03-08T01:35:00;17.48;;;15.65;;
4903;SDS011;2467;48.142;11.616;2024-03-08T01:35:32;17.13;;;14.93;;
4903;SDS011;2467;48.142;11.616;2024-03-08T01:36:05;16.50;;;14.75;;
4903;SDS011;2467;48.142;11.616;2024-03-08T01:36:38;19.40;;;14.20;;
4903;SDS011;2467;48.142;11.616;2024-03-08T01:37:10;20.02;;;16.05;;
4903;SDS011;2467;48.142;11.616;2024-03-08T01:37:42;20.55;;;16.00;;
4903;SDS011;2467;48.142;11.616;2024-03-08T01:38:15;18.25;;;15.68;;
4903;SDS011;2467;48.142;11.616;2024-03-08T01:38:48;17.48;;;15.57;;
4903;SDS011;2467;48.142;11.616;2024-03-08T01:39:20;17.67;;;14.40;;
4903;SDS011;2467;48.142;11.616;2024-03-08T01:39:53;20.50;;;15.15;;
4903;SDS011;2467;48.142;11.616;2024-03-08T01:40:25;15.75;;;13.82;;
4903;SDS011;2467;48.142;11.616;2024-03-08T01:40:58;17.35;;;15.10;;
4903;SDS011;2467;48.142;11.616;2024-03-08T01:41:31;18.23;;;14.77;;
4903;SDS011;2467;48.142;11.616;2024-03-08T01:42:03;17.67;;;15.75;;
4903;SDS011;2467;48.142;11.616;2024-03-08T01:42:36;20.33;;;16.63;;
4903;SDS011;2467;48.142;11.616;2024-03-08T01:43:18;18.50;;;16.60;;
4903;SDS011;2467;48.142;11.616;2024-03-08T01:43:50;19.48;;;16.45;;
4903;SDS011;2467;48.142;11.616;2024-03-08T01:44:24;17.02;;;15.23;;
4903;SDS011;2467;48.142;11.616;2024-03-08T01:44:57;20.73;;;14.90;;
4903;SDS011;2467;48.142;11.616;2024-03-08T01:45:29;16.50;;;14.55;;
4903;SDS011;2467;48.142;11.616;2024-03-08T01:46:05;21.65;;;15.95;;
4903;SDS011;2467;48.142;11.616;2024-03-08T01:46:41;17.40;;;15.32;;
4903;SDS011;2467;48.142;11.616;2024-03-08T01:47:15;17.45;;;14.93;;
4903;SDS011;2467;48.142;11.616;2024-03-08T01:47:48;19.58;;;15.25;;
4903;SDS011;2467;48.142;11.616;2024-03-08T01:48:20;16.88;;;14.95;;
4903;SDS011;2467;48.142;11.616;2024-03-08T01:48:55;18.48;;;14.93;;
4903;SDS011;2467;48.142;11.616;2024-03-08T01:49:29;15.73;;;14.02;;
4903;SDS011;2467;48.142;11.616;2024-03-08T01:50:01;18.65;;;16.67;;
4903;SDS011;2467;48.142;11.616;2024-03-08T01:50:34;18.23;;;16.15;;
4903;SDS011;2467;48.142;11.616;2024-03-08T01:51:07;17.38;;;14.93;;
4903;SDS011;2467;48.142;11.616;2024-03-08T01:51:43;19.58;;;14.95;;
4903;SDS011;2467;48.142;11.616;2024-03-08T01:52:15;17.17;;;15.23;;
4903;SDS011;2467;48.142;11.616;2024-03-08T01:52:50;17.65;;;14.25;;
4903;SDS011;2467;48.142;11.616;2024-03-08T01:53:22;19.50;;;16.05;;
4903;SDS011;2467;48.142;11.616;2024-03-08T01:53:56;16.88;;;14.35;;
4903;SDS011;2467;48.142;11.616;2024-03-08T01:54:29;17.05;;;15.30;;
4903;SDS011;2467;48.142;11.616;2024-03-08T01:55:03;18.63;;;15.82;;
4903;SDS011;2467;48.142;11.616;2024-03-08T01:55:38;16.98;;;15.18;;
4903;SDS011;2467;48.142;11.616;2024-03-08T01:56:11;18.58;;;15.00;;
4903;SDS011;2467;48.142;11.616;2024-03-08T01:56:45;16.50;;;14.65;;
4903;SDS011;2467;48.142;11.616;2024-03-08T01:57:18;17.58;;;14.90;;
4903;SDS011;2467;48.142;11.616;2024-03-08T01:57:51;17.35;;;15.25;;
4903;SDS011;2467;48.142;11.616;2024-03-08T01:58:23;18.23;;;14.63;;
4903;SDS011;2467;48.142;11.616;2024-03-08T01:58:59;17.42;;;15.48;;
4903;SDS011;2467;48.142;11.616;2024-03-08T01:59:34;18.83;;;14.70;;
4903;SDS011;2467;48.142;11.616;2024-03-08T02:00:06;19.10;;;15.77;;
4903;SDS011;2467;48.142;11.616;2024-03-08T02:00:42;20.38;;;15.77;;
4903;SDS011;2467;48.142;11.616;2024-03-08T02:01:16;18.05;;;15.48;;
4903;SDS011;2467;48.142;11.616;2024-03-08T02:01:51;17.90;;;15.55;;
4903;SDS011;2467;48.142;11.616;2024-03-08T02:02:27;17.75;;;15.85;;
4903;SDS011;2467;48.142;11.616;2024-03-08T02:03:02;18.73;;;16.08;;
4903;SDS011;2467;48.142;11.616;2024-03-08T02:03:35;19.85;;;15.25;;
4903;SDS011;2467;48.142;11.616;2024-03-08T02:04:07;18.42;;;13.90;;
4903;SDS011;2467;48.142;11.616;2024-03-08T02:04:41;18.08;;;15.05;;
4903;SDS011;2467;48.142;11.616;2024-03-08T02:05:14;17.90;;;14.52;;
4903;SDS011;2467;48.142;11.616;2024-03-08T02:05:46;18.50;;;16.23;;
4903;SDS011;2467;48.142;11.616;2024-03-08T02:06:18;16.27;;;13.75;;
4903;SDS011;2467;48.142;11.616;2024-03-08T02:06:52;19.92;;;15.63;;
4903;SDS011;2467;48.142;11.616;2024-03-08T02:07:24;19.08;;;15.63;;
4903;SDS011;2467;48.142;11.616;2024-03-08T02:07:56;19.55;;;15.45;;
4903;SDS011;2467;48.142;11.616;2024-03-08T02:08:29;19.73;;;15.82;;
4903;SDS011;2467;48.142;11.616;2024-03-08T02:09:03;18.67;;;15.80;;
4903;SDS011;2467;48.142;11.616;2024-03-08T02:09:37;18.35;;;15.60;;
4903;SDS011;2467;48.142;11.616;2024-03-08T02:10:10;20.42;;;15.88;;
4903;SDS011;2467;48.142;11.616;2024-03-08T02:10:44;21.38;;;16.67;;
4903;SDS011;2467;48.142;11.616;2024-03-08T02:11:16;19.58;;;15.80;;
4903;SDS011;2467;48.142;11.616;2024-03-08T02:11:50;19.63;;;16.48;;
4903;SDS011;2467;48.142;11.616;2024-03-08T02:12:24;18.27;;;15.90;;
4903;SDS011;2467;48.142;11.616;2024-03-08T02:12:56;17.25;;;15.45;;
4903;SDS011;2467;48.142;11.616;2024-03-08T02:13:28;18.80;;;15.68;;
4903;SDS011;2467;48.142;11.616;2024-03-08T02:14:00;18.17;;;15.32;;
4903;SDS011;2467;48.142;11.616;2024-03-08T02:14:33;23.35;;;15.55;;
4903;SDS011;2467;48.142;11.616;2024-03-08T02:15:06;16.92;;;15.13;;
4903;SDS011;2467;48.142;11.616;2024-03-08T02:15:52;17.88;;;15.77;;
4903;SDS011;2467;48.142;11.616;2024-03-08T02:16:25;18.30;;;15.50;;
4903;SDS011;2467;48.142;11.616;2024-03-08T02:17:01;19.27;;;16.13;;
4903;SDS011;2467;48.142;11.616;2024-03-08T02:17:34;24.73;;;17.30;;
4903;SDS011;2467;48.142;11.616;2024-03-08T02:18:07;23.83;;;16.38;;
4903;SDS011;2467;48.142;11.616;2024-03-08T02:18:39;20.10;;;14.85;;
4903;SDS011;2467;48.142;11.616;2024-03-08T02:19:12;20.13;;;15.38;;
4903;SDS011;2467;48.142;11.616;2024-03-08T02:19:44;19.65;;;16.08;;
4903;SDS011;2467;48.142;11.616;2024-03-08T02:20:17;19.83;;;16.88;;
4903;SDS011;2467;48.142;11.616;2024-03-08T02:20:52;21.48;;;17.05;;
4903;SDS011;2467;48.142;11.616;2024-03-08T02:21:25;17.90;;;15.98;;
4903;SDS011;2467;48.142;11.616;2024-03-08T02:21:57;19.58;;;17.02;;
4903;SDS011;2467;48.142;11.616;2024-03-08T02:22:30;19.95;;;16.15;;
4903;SDS011;2467;48.142;11.616;2024-03-08T02:23:03;20.30;;;15.88;;
4903;SDS011;2467;48.142;11.616;2024-03-08T02:23:36;19.67;;;15.68;;
4903;SDS011;2467;48.142;11.616;2024-03-08T02:24:09;20.48;;;16.60;;
4903;SDS011;2467;48.142;11.616;2024-03-08T02:24:42;20.10;;;16.90;;
4903;SDS011;2467;48.142;11.616;2024-03-08T02:25:14;20.63;;;15.07;;
4903;SDS011;2467;48.142;11.616;2024-03-08T02:25:47;20.25;;;16.20;;
4903;SDS011;2467;48.142;11.616;2024-03-08T02:26:20;17.73;;;15.43;;
4903;SDS011;2467;48.142;11.616;2024-03-08T02:26:54;19.77;;;16.13;;
4903;SDS011;2467;48.142;11.616;2024-03-08T02:27:26;19.70;;;17.15;;
4903;SDS011;2467;48.142;11.616;2024-03-08T02:27:58;21.60;;;16.83;;
4903;SDS011;2467;48.142;11.616;2024-03-08T02:28:31;22.05;;;17.92;;
4903;SDS011;2467;48.142;11.616;2024-03-08T02:29:05;19.35;;;16.58;;
4903;SDS011;2467;48.142;11.616;2024-03-08T02:29:37;19.63;;;16.88;;
4903;SDS011;2467;48.142;11.616;2024-03-08T02:30:12;20.60;;;17.35;;
4903;SDS011;2467;48.142;11.616;2024-03-08T02:30:46;17.50;;;15.52;;
4903;SDS011;2467;48.142;11.616;2024-03-08T02:31:18;19.38;;;16.05;;
4903;SDS011;2467;48.142;11.616;2024-03-08T02:31:50;19.58;;;16.85;;
4903;SDS011;2467;48.142;11.616;2024-03-08T02:32:23;17.42;;;15.18;;
4903;SDS011;2467;48.142;11.616;2024-03-08T02:32:56;23.13;;;16.88;;
4903;SDS011;2467;48.142;11.616;2024-03-08T02:33:29;16.55;;;14.43;;
4903;SDS011;2467;48.142;11.616;2024-03-08T02:34:01;19.08;;;16.02;;
4903;SDS011;2467;48.142;11.616;2024-03-08T02:34:34;19.90;;;16.85;;
4903;SDS011;2467;48.142;11.616;2024-03-08T02:35:06;19.48;;;16.70;;
4903;SDS011;2467;48.142;11.616;2024-03-08T02:35:39;21.38;;;16.55;;
4903;SDS011;2467;48.142;11.616;2024-03-08T02:36:13;18.67;;;15.50;;
4903;SDS011;2467;48.142;11.616;2024-03-08T02:36:46;19.25;;;15.85;;
4903;SDS011;2467;48.142;11.616;2024-03-08T02:37:18;19.63;;;16.45;;
4903;SDS011;2467;48.142;11.616;2024-03-08T02:37:51;20.63;;;16.88;;
4903;SDS011;2467;48.142;11.616;2024-03-08T02:38:23;21.67;;;16.33;;
4903;SDS011;2467;48.142;11.616;2024-03-08T02:38:57;20.23;;;16.48;;
4903;SDS011;2467;48.142;11.616;2024-03-08T02:39:29;21.95;;;17.05;;
4903;SDS011;2467;48.142;11.616;2024-03-08T02:40:03;16.98;;;14.80;;
4903;SDS011;2467;48.142;11.616;2024-03-08T02:40:36;19.10;;;16.00;;
4903;SDS011;2467;48.142;11.616;2024-03-08T02:41:09;24.15;;;17.13;;
4903;SDS011;2467;48.142;11.616;2024-03-08T02:41:42;18.73;;;15.95;;
4903;SDS011;2467;48.142;11.616;2024-03-08T02:42:14;20.23;;;17.17;;
4903;SDS011;2467;48.142;11.616;2024-03-08T02:42:46;20.95;;;16.85;;
4903;SDS011;2467;48.142;11.616;2024-03-08T02:43:20;16.70;;;14.75;;
4903;SDS011;2467;48.142;11.616;2024-03-08T02:43:53;20.08;;;16.75;;
4903;SDS011;2467;48.142;11.616;2024-03-08T02:44:26;19.70;;;16.98;;
4903;SDS011;2467;48.142;11.616;2024-03-08T02:44:59;18.85;;;15.80;;
4903;SDS011;2467;48.142;11.616;2024-03-08T02:45:32;19.67;;;16.38;;
4903;SDS011;2467;48.142;11.616;2024-03-08T02:46:04;18.20;;;15.48;;
4903;SDS011;2467;48.142;11.616;2024-03-08T02:46:36;20.30;;;16.67;;
4903;SDS011;2467;48.142;11.616;2024-03-08T02:47:10;19.98;;;15.88;;
4903;SDS011;2467;48.142;11.616;2024-03-08T02:47:42;20.00;;;15.75;;
4903;SDS011;2467;48.142;11.616;2024-03-08T02:48:15;19.58;;;15.20;;
4903;SDS011;2467;48.142;11.616;2024-03-08T02:48:48;20.25;;;15.93;;
4903;SDS011;2467;48.142;11.616;2024-03-08T02:49:22;19.60;;;16.55;;
4903;SDS011;2467;48.142;11.616;2024-03-08T02:49:54;20.70;;;16.45;;
4903;SDS011;2467;48.142;11.616;2024-03-08T02:50:27;21.38;;;17.58;;
4903;SDS011;2467;48.142;11.616;2024-03-08T02:50:59;18.17;;;15.95;;
4903;SDS011;2467;48.142;11.616;2024-03-08T02:51:35;18.70;;;16.73;;
4903;SDS011;2467;48.142;11.616;2024-03-08T02:52:07;19.20;;;15.07;;
4903;SDS011;2467;48.142;11.616;2024-03-08T02:52:39;18.92;;;16.00;;
4903;SDS011;2467;48.142;11.616;2024-03-08T02:53:13;18.67;;;16.67;;
4903;SDS011;2467;48.142;11.616;2024-03-08T02:53:46;19.67;;;16.70;;
4903;SDS011;2467;48.142;11.616;2024-03-08T02:54:20;17.13;;;15.32;;
4903;SDS011;2467;48.142;11.616;2024-03-08T02:54:52;17.55;;;15.75;;
4903;SDS011;2467;48.142;11.616;2024-03-08T02:55:24;21.35;;;16.90;;
4903;SDS011;2467;48.142;11.616;2024-03-08T02:55:58;18.85;;;16.25;;
4903;SDS011;2467;48.142;11.616;2024-03-08T02:56:30;18.85;;;16.10;;
4903;SDS011;2467;48.142;11.616;2024-03-08T02:57:06;21.60;;;16.23;;
4903;SDS011;2467;48.142;11.616;2024-03-08T02:57:39;18.50;;;14.90;;
4903;SDS011;2467;48.142;11.616;2024-03-08T02:58:12;18.67;;;15.90;;
4903;SDS011;2467;48.142;11.616;2024-03-08T02:58:46;21.90;;;16.95;;
4903;SDS011;2467;48.142;11.616;2024-03-08T02:59:20;20.35;;;17.20;;
4903;SDS011;2467;48.142;11.616;2024-03-08T02:59:53;17.58;;;15.05;;
4903;SDS011;2467;48.142;11.616;2024-03-08T03:00:25;20.38;;;17.15;;
4903;SDS011;2467;48.142;11.616;2024-03-08T03:00:58;18.35;;;15.63;;
4903;SDS011;2467;48.142;11.616;2024-03-08T03:01:30;22.30;;;16.73;;
4903;SDS011;2467;48.142;11.616;2024-03-08T03:02:03;18.77;;;16.03;;
4903;SDS011;2467;48.142;11.616;2024-03-08T03:02:36;19.55;;;15.25;;
4903;SDS011;2467;48.142;11.616;2024-03-08T03:03:08;19.85;;;17.15;;
4903;SDS011;2467;48.142;11.616;2024-03-08T03:03:41;19.38;;;17.08;;
4903;SDS011;2467;48.142;11.616;2024-03-08T03:04:14;20.27;;;15.68;;
4903;SDS011;2467;48.142;11.616;2024-03-08T03:04:46;21.83;;;17.15;;
4903;SDS011;2467;48.142;11.616;2024-03-08T03:05:18;21.48;;;17.65;;
4903;SDS011;2467;48.142;11.616;2024-03-08T03:05:51;16.80;;;15.00;;
4903;SDS011;2467;48.142;11.616;2024-03-08T03:06:26;17.33;;;15.43;;
4903;SDS011;2467;48.142;11.616;2024-03-08T03:07:00;17.42;;;14.82;;
4903;SDS011;2467;48.142;11.616;2024-03-08T03:07:32;17.50;;;15.63;;
4903;SDS011;2467;48.142;11.616;2024-03-08T03:08:05;21.77;;;16.90;;
4903;SDS011;2467;48.142;11.616;2024-03-08T03:08:41;18.25;;;15.93;;
4903;SDS011;2467;48.142;11.616;2024-03-08T03:09:15;20.33;;;16.55;;
4903;SDS011;2467;48.142;11.616;2024-03-08T03:09:48;19.88;;;17.05;;
4903;SDS011;2467;48.142;11.616;2024-03-08T03:10:22;17.90;;;15.77;;
4903;SDS011;2467;48.142;11.616;2024-03-08T03:10:55;19.58;;;16.52;;
4903;SDS011;2467;48.142;11.616;2024-03-08T03:11:28;19.15;;;16.40;;
4903;SDS011;2467;48.142;11.616;2024-03-08T03:12:00;19.65;;;15.90;;
4903;SDS011;2467;48.142;11.616;2024-03-08T03:12:33;19.45;;;17.38;;
4903;SDS011;2467;48.142;11.616;2024-03-08T03:13:06;18.77;;;16.65;;
4903;SDS011;2467;48.142;11.616;2024-03-08T03:13:38;21.20;;;17.38;;
4903;SDS011;2467;48.142;11.616;2024-03-08T03:14:10;20.05;;;17.92;;
4903;SDS011;2467;48.142;11.616;2024-03-08T03:14:43;21.20;;;16.48;;
4903;SDS011;2467;48.142;11.616;2024-03-08T03:15:15;19.55;;;16.35;;
4903;SDS011;2467;48.142;11.616;2024-03-08T03:15:48;21.63;;;16.80;;